EA1RCG-3
43.09.45N 005.49.78W
IN73CD aprs.fi
zuletzt gehoert:
2022-08-15T21:00:58Z
zuerst gehoert:
2022-06-05T12:27:51Z

APRS IN73CD, 2 Stunde(n), EA1RCG-3 [23:26:29, 0s].
EA1RCG 43.09.45N 005.49.78WIN73CD 0.560km 309°NW21:00:58ZGRUPO RADIO GALENA (GRG) 430.4500/430.4500 CC1(3EA1RCG-3)
EA1HWA 43.12.00N 005.47.40WIN73CE 5.779km 29°NNE21:01:26ZMMDVM MMDVM HS Hat 433.4500/433.4500 CC1
EA1JBL 43.12.28N 005.47.42WIN73CE 6.237km 26°NNE21:01:49ZMMDVM DVMega 435.3000/435.3000 CC1
EB1DGC 43.12.60N 005.45.59WIN73CF 8.086km 40°NE21:00:20ZMMDVM MMDVM HS Hat 433.4500/433.4500 CC1
EA1IMW 43.14.36N 005.46.93WIN73CF 10.035km 20°NNE21:02:01ZGRUPO RADIO GALENA (GRG) 430.4500/430.4500 CC1(3EA1IMW-1)
ED1ZAD 43.07.90N 005.38.52WIN73ED 15.001km 100°E21:19:32ZED1ZAD-3 APRS Digi/Igate(3ED1ZAD-3)
EA1HWX 43.19.29N 005.50.96WIN73BH 18.677km 354°N21:01:13ZMMDVM DMO 222.3400/222.3400 CC1(3EA1HWX-10)
DMO - UHF 439.7250/431.0000 CC11(2EA1HWX-2)
EA1L 43.20.38N 005.51.13WIN73BI 20.728km 354°N21:18:45ZWind 077°/000kn, Böen bis 000kn, Temp 18.33c, Regen 0.0mm, letzte 24h 0.0mm, seit 0h 0.0mm, Baro 1008.8h, Hum: 82%(3EA1L-13)
ea1l@ure.es V=13.4V(2EA1L)
EB1JAJ 43.21.72N 005.51.82WIN73BI 23.287km 352°N21:02:05ZMMDVM MMDVM HS Dual Hat 438.0250/431.0250 CC1(3EB1JAJ-2)
LEHU 43.22.63N 005.49.57WIN73CJ 24.756km 360°N21:00:03ZHelipuerto del HUCA: LEAS 152000Z VRB02KT 9999 FEW027 20/16 Q1010 NOSIG=
ED1ZAU 43.23.04N 005.52.75WIN73BJ 25.899km 350°N21:02:19ZRD625 438.5000/430.9000 CC1
EA1ABW 43.24.77N 005.47.77WIN73CJ 28.829km N21:00:19ZMMDVM MMDVM HS Hat 439.8250/439.8250 CC1(3EA1ABW-2)
EC1AIJ 43.19.77N 005.33.49WIN73FH 29.046km 48°NE21:00:42ZMMDVM MMDVM HS Hat 432.9800/432.9800 CC1
LEMR 43.25.83N 005.49.60WIN73CK 30.686km 360°N21:00:03ZAerodromo de la Morgal (123.500MHz): LEAS 152000Z VRB02KT 9999 FEW027 20/16 Q1010 NOSIG=
LEGM 43.26.15N 005.49.84WIN73CK 31.300km 359°N21:00:03ZHelipuerto de La Morgal (123.500MHz): LEAS 152000Z VRB02KT 9999 FEW027 20/16 Q1010 NOSIG=
EA1IPU 43.26.21N 005.46.62WIN73CK 31.642km N21:01:05ZMMDVM MMDVM HS Hat 439.8000/439.8000 CC1(3EA1IPU-1)
ED1ZAS 43.27.52N 005.40.17WIN73DL 36.078km 20°NNE21:02:21ZRD985 438.2250/430.6250 CC1
ED1ZAE 43.27.99N 005.40.54WIN73DL 36.712km 19°NNE21:20:24ZWIDE3-3 ESAS3-3 IN73DL WWW.EA1URG.ORG(3ED1ZAE-3)
ED1ZAY 43.29.47N 005.56.54WIN73AL 38.646km 346°NNW21:02:18ZRD625 438.3000/430.7000 CC1
EA4ACU 43.29.56N 005.38.92WIN73EL 40.208km 21°NNE21:01:50ZMMDVM MMDVM HS Hat 432.7000/432.7000 CC1(3EA4ACU-1)
EB1GEM 43.30.00N 005.36.07WIN73EM 42.462km 25°NNE21:25:37ZWX3in1Plus2.0 U=13.3V,T=??.?C/??.?F(3EB1GEM-3)
EA1FFA 43.31.53N 005.40.64WIN73DM 42.946km 16°NNE21:01:42ZMMDVM MMDVM HS Hat 438.8000/438.8000 CC1(3EA1FFA-1)
EA1DZR 43.31.48N 005.40.00WIN73EM 43.087km 17°NNE21:02:12ZMMDVM DVMega 431.1000/431.1000 CC1(3EA1DZR-1)
MMDVM MMDVM HS Hat 432.1000/432.1000 CC2(2EA1DZR-2)
MMDVM DV ADER 434.3500/434.3500 CC1(2EA1DZR-4)
EA1HJA 43.28.10N 005.30.45WIN73FL 43.300km 36°NE21:20:29Z IN73FL WX3IN1+ 2.0 - V=14.0V,TX TEMP=.7.0C
EA1HJA@URE.ES(2EA1HJA-2)
EA1IEJ 43.31.81N 005.40.17WIN73DM 43.622km 17°NNE21:00:26ZMMDVM DMO 222.3400/222.3400 CC1(3EA1IEJ-11)
MMDVM MMDVM HS Hat 438.8500/438.8500 CC6(2EA1IEJ-1)
EB1TK 43.32.22N 005.42.32WIN73DM 43.621km 13°NNE21:20:16ZWind 201°/003kn, Böen bis 005kn, Temp 20.00c, Regen 0.0mm, letzte 24h 0.0mm, seit 0h 0.0mm, Baro 1012.9h, Hum: 84%(3EB1TK-13)
EA1AHA 43.32.72N 005.54.38WIN73BN 43.971km 351°N21:00:58ZWind 000°/000kn, Böen bis 000kn, Temp 20.56c, Regen 0.0mm, letzte 24h 0.0mm, seit 0h 0.0mm, Baro 1011.7h, Hum: 73%(3EA1AHA-13)
LEEL 43.32.98N 005.41.71WIN73DN 45.157km 13°NNE21:00:03ZHelipuerto de El Musel: LEAS 152000Z VRB02KT 9999 FEW027 20/16 Q1010 NOSIG=
EA4DB 42.52.45N 005.25.06WIN72GU 45.432km 133°SE21:00:44ZMMDVM DMO 144.8625/144.8625 CC1(3EA4DB-9)
EA1JBF 42.43.82N 005.47.43WIN72CR 47.219km 177°S21:01:06ZMMDVM MMDVM HS Dual Hat 438.3000/430.7000 CC1
EA1FHR 43.28.72N 005.26.41WIN73GL 47.585km 41°NE21:01:01ZMMDVM MMDVM HS Hat 439.1500/439.1500 CC1
EA1HWD 43.28.96N 005.26.30WIN73GL 48.027km 40°NE21:00:28ZMMDVM MMDVM HS Hat 434.2500/434.2500 CC1
EA1JAY 43.29.33N 005.26.78WIN73GL 48.150km 39°NE21:15:04Z434.525MHz Nodo TETRA DMO(3EA1JAY-4)
EA1JAY(2EA1JAY-2)
LETN 43.20.05N 006.22.69WIN63TI 49.102km 294°WNW21:00:03ZAerodromo de La Curiscada (Tineo): LEAS 152000Z VRB02KT 9999 FEW027 20/16 Q1010 NOSIG=

aprs.pl 5.0.011w DL3EL © 2006-2021 [4414449]